プーケット の空港の天気 - METARとTAF

プーケット国際空港 ( VTSP / HKT ) - タイ プーケット県
飛行場実況気象(Metar)
観測時間08/16 13:30 ICT (08/16 06:30 UTC)
風向・風速西 7m/s
視程10km以上
天気現象
少しの雲 雲底高度 610m
全天の4割程度の雲 雲底高度 3050m
気温32℃
湿度59%
気圧1009hPa
METARVTSP 160630Z 27014KT 9999 FEW020 SCT100 32/23 Q1009 NOSIG
過去の天気等 Google飛行場航空写真 Wunderground天気予報

過去48時間のMETAR

飛行場予報(TAF)
発表時間: 8/16 12:00 ICT (8/16 05:00 UTC)
予報対象時間: 16日13時 ICT ~ 17日19時 ICT
風向・風速西 7m/s
視程10km以上
少しの雲 雲底高度 610m
全天の8割程度の雲 雲底高度 3050m
17日3時 ICT ~ 17日9時 ICT に一時的に
風向・風速西 8m/s 瞬間風速 15m/s
視程5000m
天気現象雷雨
少しの積乱雲 雲底高度 550m
全天の4割程度の雲 雲底高度 610m
全天の8割程度の雲 雲底高度 3050m
17日13時 ICT ~ 17日19時 ICT に一時的に
風向・風速西 8m/s 瞬間風速 15m/s
視程5000m
天気現象雷雨
少しの積乱雲 雲底高度 550m
全天の4割程度の雲 雲底高度 610m
全天の8割程度の雲 雲底高度 3050m
TAF VTSP 160500Z 1606/1712 26013KT 9999 FEW020 BKN100
TEMPO 1620/1702 26015G30KT 5000 TSRA FEW018CB SCT020 BKN100
TEMPO 1706/1712 26015G30KT 5000 TSRA FEW018CB SCT020 BKN100